createdAt,value
2023-03-07T00:03:05.510Z,22.02
2023-03-07T00:08:09.388Z,20.27
2023-03-07T00:13:14.105Z,21.70
2023-03-07T00:18:17.472Z,21.23
2023-03-07T00:23:20.884Z,22.25
2023-03-07T00:28:25.803Z,24.80
2023-03-07T00:33:29.452Z,26.83
2023-03-07T00:38:34.221Z,24.90
2023-03-07T00:43:39.581Z,23.55
2023-03-07T00:48:43.975Z,24.67
2023-03-07T00:53:47.854Z,25.73
2023-03-07T00:58:53.614Z,24.15
2023-03-07T01:03:57.036Z,25.08
2023-03-07T01:09:02.521Z,24.52
2023-03-07T01:14:08.461Z,24.17
2023-03-07T01:19:13.929Z,25.23
2023-03-07T01:24:18.161Z,25.35
2023-03-07T01:29:22.855Z,24.95
2023-03-07T01:34:26.266Z,26.05
2023-03-07T01:39:29.925Z,34.95
2023-03-07T01:45:00.433Z,34.15
2023-03-07T01:50:07.524Z,32.47
2023-03-07T01:55:16.591Z,30.48
2023-03-07T02:00:28.756Z,31.23
2023-03-07T02:10:50.779Z,34.47
2023-03-07T02:15:56.259Z,33.03
2023-03-07T02:21:09.451Z,37.75
2023-03-07T02:26:18.211Z,35.20
2023-03-07T02:31:23.302Z,40.88
2023-03-07T02:36:31.103Z,43.38
2023-03-07T02:41:35.873Z,39.83
2023-03-07T02:46:40.862Z,38.70
2023-03-07T02:51:44.499Z,36.33
2023-03-07T02:56:48.094Z,38.83
2023-03-07T03:01:53.226Z,36.78
2023-03-07T03:06:57.220Z,33.13
2023-03-07T03:12:00.829Z,33.65
2023-03-07T03:17:05.682Z,33.97
2023-03-07T03:22:09.117Z,32.28
2023-03-07T03:27:12.544Z,31.05
2023-03-07T03:32:17.439Z,29.83
2023-03-07T03:37:20.796Z,28.55
2023-03-07T03:42:24.540Z,31.42
2023-03-07T03:47:29.741Z,30.40
2023-03-07T03:52:33.083Z,26.98
2023-03-07T03:57:36.367Z,26.63
2023-03-07T04:02:41.675Z,26.25
2023-03-07T04:07:45.235Z,27.58
2023-03-07T04:12:48.571Z,28.50
2023-03-07T04:17:53.350Z,26.65
2023-03-07T04:22:57.052Z,26.73
2023-03-07T04:28:00.419Z,25.83
2023-03-07T04:33:05.215Z,24.33
2023-03-07T04:38:08.713Z,24.45
2023-03-07T04:43:12.099Z,23.88
2023-03-07T04:48:17.009Z,23.70
2023-03-07T04:53:20.634Z,22.83
2023-03-07T04:58:24.020Z,22.48
2023-03-07T05:03:29.300Z,21.48
2023-03-07T05:08:33.170Z,22.30
2023-03-07T05:13:36.656Z,23.65
2023-03-07T05:18:41.415Z,21.40
2023-03-07T05:23:44.794Z,20.33
2023-03-07T05:28:48.256Z,21.17
2023-03-07T05:33:53.018Z,18.65
2023-03-07T05:38:57.179Z,19.90
2023-03-07T05:44:00.916Z,20.15
2023-03-07T05:49:05.785Z,20.25
2023-03-07T05:54:09.171Z,19.15
2023-03-07T05:59:15.524Z,18.42
2023-03-07T06:04:20.266Z,19.88
2023-03-07T06:09:25.916Z,17.95
2023-03-07T06:14:29.299Z,18.23
2023-03-07T06:19:35.024Z,17.65
2023-03-07T06:24:38.574Z,17.50
2023-03-07T06:29:42.513Z,19.20
2023-03-07T06:34:47.229Z,18.00
2023-03-07T06:39:50.663Z,20.67
2023-03-07T06:44:54.122Z,19.35
2023-03-07T06:49:59.016Z,20.08
2023-03-07T06:55:02.417Z,21.02
2023-03-07T07:00:07.847Z,23.08
2023-03-07T07:05:13.216Z,22.15
2023-03-07T07:10:16.993Z,20.85
2023-03-07T07:15:20.383Z,18.67
2023-03-07T07:20:25.247Z,18.88
2023-03-07T07:25:28.630Z,20.27
2023-03-07T07:30:32.059Z,22.67
2023-03-07T07:35:37.057Z,20.35
2023-03-07T07:40:40.813Z,19.65
2023-03-07T07:45:44.445Z,20.10
2023-03-07T07:50:49.284Z,19.83
2023-03-07T07:55:52.958Z,18.77
2023-03-07T08:00:56.334Z,19.27
2023-03-07T08:06:01.219Z,19.17
2023-03-07T08:11:05.154Z,19.85
2023-03-07T08:16:12.363Z,19.17
2023-03-07T08:21:17.194Z,19.08
2023-03-07T08:26:20.641Z,18.05
2023-03-07T08:31:25.515Z,16.63
2023-03-07T08:36:30.336Z,15.05
2023-03-07T08:41:33.750Z,13.40
2023-03-07T08:46:37.362Z,12.98
2023-03-07T08:51:42.202Z,13.30
2023-03-07T08:56:45.607Z,13.63
2023-03-07T09:01:49.188Z,11.75
2023-03-07T09:06:54.618Z,11.82
2023-03-07T09:11:58.124Z,11.25
2023-03-07T09:17:01.536Z,10.98
2023-03-07T09:22:06.791Z,12.48
2023-03-07T09:27:11.563Z,11.75
2023-03-07T09:32:15.391Z,11.50
2023-03-07T09:37:20.202Z,11.02
2023-03-07T09:42:28.803Z,11.45
2023-03-07T09:47:47.751Z,11.05
2023-03-07T09:53:00.828Z,11.48
2023-03-07T09:58:09.291Z,10.02
2023-03-07T10:03:22.600Z,9.80
2023-03-07T10:13:45.810Z,10.18
2023-03-07T10:19:02.774Z,10.27
2023-03-07T10:24:27.470Z,10.98
2023-03-07T10:29:37.392Z,10.25
2023-03-07T10:34:41.753Z,9.35
2023-03-07T10:39:51.868Z,10.95
2023-03-07T10:44:55.612Z,9.30
2023-03-07T10:50:07.521Z,10.23
2023-03-07T10:55:35.486Z,9.18
2023-03-07T11:00:38.926Z,9.07
2023-03-07T11:05:49.084Z,9.05
2023-03-07T11:10:53.739Z,9.65
2023-03-07T11:16:12.194Z,9.35
2023-03-07T11:21:29.210Z,7.35
2023-03-07T11:26:39.815Z,7.72
2023-03-07T11:31:51.934Z,8.50
2023-03-07T11:36:58.236Z,8.27
2023-03-07T11:42:11.423Z,9.32
2023-03-07T11:47:39.786Z,9.02
2023-03-07T11:53:03.131Z,8.32
2023-03-07T11:58:26.002Z,8.35
2023-03-07T12:04:21.877Z,8.87
2023-03-07T12:09:37.683Z,9.13
2023-03-07T12:14:51.224Z,7.93
2023-03-07T12:20:06.052Z,8.15
2023-03-07T12:25:24.869Z,8.15
2023-03-07T12:30:38.256Z,7.32
2023-03-07T12:40:53.060Z,6.75
2023-03-07T12:46:02.977Z,7.20
2023-03-07T12:51:12.262Z,7.32
2023-03-07T12:56:20.561Z,7.10
2023-03-07T13:01:30.537Z,6.63
2023-03-07T13:06:37.351Z,6.78
2023-03-07T13:12:20.320Z,6.30
2023-03-07T13:18:02.565Z,7.57
2023-03-07T13:23:26.460Z,6.15
2023-03-07T13:28:48.164Z,6.28
2023-03-07T13:33:52.999Z,6.32
2023-03-07T13:38:56.397Z,6.55
2023-03-07T13:44:02.125Z,6.10
2023-03-07T13:49:08.440Z,6.32
2023-03-07T13:54:14.836Z,5.75
2023-03-07T13:59:27.671Z,5.70
2023-03-07T14:04:41.168Z,5.80
2023-03-07T14:09:48.627Z,5.57
2023-03-07T14:15:07.573Z,6.45
2023-03-07T14:20:20.203Z,6.75
2023-03-07T14:25:26.444Z,6.07
2023-03-07T14:30:31.516Z,5.53
2023-03-07T14:35:38.896Z,5.88
2023-03-07T14:40:58.873Z,6.60
2023-03-07T14:46:08.474Z,6.00
2023-03-07T14:51:16.873Z,5.80
2023-03-07T14:56:24.368Z,6.60
2023-03-07T15:01:33.416Z,7.05
2023-03-07T15:06:45.030Z,6.55
2023-03-07T15:11:53.593Z,6.78
2023-03-07T15:17:03.136Z,8.27
2023-03-07T15:22:16.641Z,7.80
2023-03-07T15:27:25.010Z,6.72
2023-03-07T15:32:35.154Z,6.63
2023-03-07T15:37:55.202Z,6.85
2023-03-07T15:43:01.760Z,6.60
2023-03-07T15:48:12.190Z,8.48
2023-03-07T15:53:24.703Z,6.93
2023-03-07T15:58:29.636Z,7.07
2023-03-07T16:03:33.852Z,6.93
2023-03-07T16:08:38.860Z,6.88
2023-03-07T16:13:44.927Z,7.57
2023-03-07T16:18:49.085Z,6.38
2023-03-07T16:23:54.057Z,6.72
2023-03-07T16:28:57.723Z,6.55
2023-03-07T16:34:01.433Z,6.13
2023-03-07T16:39:06.293Z,5.47
2023-03-07T16:44:16.698Z,5.63
2023-03-07T16:49:21.460Z,5.03
2023-03-07T16:54:26.254Z,6.18
2023-03-07T16:59:35.770Z,6.47
2023-03-07T17:04:39.462Z,7.38
2023-03-07T17:09:44.485Z,8.48
2023-03-07T17:14:47.933Z,7.65
2023-03-07T17:19:52.587Z,6.72
2023-03-07T17:24:57.900Z,6.88
2023-03-07T17:30:01.399Z,7.68
2023-03-07T17:35:05.237Z,7.82
2023-03-07T17:40:12.765Z,7.15
2023-03-07T17:45:16.172Z,6.97
2023-03-07T17:50:23.789Z,6.57
2023-03-07T17:55:28.890Z,6.55
2023-03-07T18:00:32.264Z,6.28
2023-03-07T18:05:35.675Z,6.80
2023-03-07T18:10:40.419Z,7.20
2023-03-07T18:15:46.566Z,8.38
2023-03-07T18:20:57.854Z,7.97
2023-03-07T18:26:05.597Z,7.90
2023-03-07T18:31:11.912Z,6.22
2023-03-07T18:36:17.160Z,6.63
2023-03-07T18:41:23.632Z,5.88
2023-03-07T18:46:30.564Z,5.53
2023-03-07T18:51:34.233Z,5.55
2023-03-07T18:56:39.042Z,6.65
2023-03-07T19:01:42.491Z,6.32
2023-03-07T19:06:47.586Z,6.40
2023-03-07T19:11:52.926Z,6.75
2023-03-07T19:16:56.485Z,5.28
2023-03-07T19:22:00.111Z,5.20
2023-03-07T19:27:04.955Z,5.72
2023-03-07T19:32:08.831Z,6.00
2023-03-07T19:37:12.306Z,5.45
2023-03-07T19:42:17.115Z,6.15
2023-03-07T19:47:20.529Z,6.25
2023-03-07T19:52:24.016Z,6.25
2023-03-07T19:57:28.735Z,5.53
2023-03-07T20:02:33.902Z,5.80
2023-03-07T20:07:38.269Z,6.47
2023-03-07T20:12:43.252Z,6.70
2023-03-07T20:17:46.663Z,6.20
2023-03-07T20:22:54.870Z,7.15
2023-03-07T20:27:59.951Z,6.43
2023-03-07T20:33:03.472Z,6.43
2023-03-07T20:38:07.081Z,6.13
2023-03-07T20:43:11.876Z,6.95
2023-03-07T20:48:15.251Z,6.35
2023-03-07T20:53:18.603Z,6.68
2023-03-07T20:58:24.919Z,6.55
2023-03-07T21:03:29.078Z,7.15
2023-03-07T21:08:34.382Z,7.72
2023-03-07T21:13:41.170Z,7.65
2023-03-07T21:18:44.964Z,8.13
2023-03-07T21:23:49.132Z,7.97
2023-03-07T21:28:54.262Z,8.30
2023-03-07T21:33:59.406Z,9.75
2023-03-07T21:39:04.249Z,6.18
2023-03-07T21:44:09.221Z,5.55
2023-03-07T21:49:13.118Z,5.72
2023-03-07T21:54:16.469Z,5.82
2023-03-07T21:59:21.679Z,6.28
2023-03-07T22:04:25.250Z,5.72
2023-03-07T22:09:28.633Z,5.78
2023-03-07T22:14:33.347Z,5.07
2023-03-07T22:19:36.738Z,6.00
2023-03-07T22:24:40.145Z,5.30
2023-03-07T22:29:45.643Z,5.15
2023-03-07T22:34:49.052Z,5.32
2023-03-07T22:39:52.575Z,4.72
2023-03-07T22:44:57.295Z,4.63
2023-03-07T22:50:00.733Z,4.60
2023-03-07T22:55:04.971Z,4.65
2023-03-07T23:00:12.116Z,4.63
2023-03-07T23:05:15.606Z,4.07
2023-03-07T23:10:19.163Z,3.95
2023-03-07T23:15:24.135Z,4.05
2023-03-07T23:20:29.049Z,3.80
2023-03-07T23:25:33.133Z,4.00
2023-03-07T23:30:38.500Z,5.00
2023-03-07T23:35:42.212Z,4.88
2023-03-07T23:40:45.582Z,4.57
2023-03-07T23:45:50.316Z,4.47
2023-03-07T23:50:55.035Z,4.15
2023-03-07T23:55:58.362Z,4.95
